Time;durP1;ratioP1;P1;durP2;ratioP2;P2;SDS_P1;SDS_P2;PMS_P1;PMS_P2;Temp;Humidity;BMP_temperature;BMP_pressure;BME280_temperature;BME280_humidity;BME280_pressure;Samples;Min_cycle;Max_cycle;Signal;HPM_P1;HPM_P2
2022/02/10 00:21:03;;;;;;;;;14.50;12.75;;;;;;;;5051544;28;46229;-68
2022/02/10 00:23:48;;;;;;;;;14.75;14.75;;;;;;;;5053844;28;45393;-67
2022/02/10 00:34:29;;;;;;;;;21.00;17.00;;;;;;;;5052295;28;45383;-67
2022/02/10 00:42:13;;;;;;;;;15.50;15.25;;;;;;;;5052131;28;45473;-68
2022/02/10 00:44:38;;;;;;;;;16.75;16.75;;;;;;;;5060098;28;45436;-68
2022/02/10 00:47:03;;;;;;;;;17.00;12.50;;;;;;;;5052351;27;45399;-68
2022/02/10 00:49:28;;;;;;;;;17.00;14.75;;;;;;;;5050150;28;45328;-68
2022/02/10 00:51:55;;;;;;;;;16.00;15.25;;;;;;;;5054563;28;45573;-68
2022/02/10 00:54:24;;;;;;;;;16.00;16.00;;;;;;;;5050920;27;45467;-68
2022/02/10 00:56:49;;;;;;;;;19.25;16.50;;;;;;;;5067832;28;45332;-68
2022/02/10 01:31:40;;;;;;;;;16.00;13.50;;;;;;;;5059956;28;45561;-68
2022/02/10 01:34:05;;;;;;;;;16.50;14.25;;;;;;;;5053323;28;46605;-67
2022/02/10 01:36:31;;;;;;;;;20.00;15.00;;;;;;;;5058730;28;45573;-67
2022/02/10 01:38:56;;;;;;;;;16.50;14.25;;;;;;;;5056611;27;45233;-68
2022/02/10 01:58:06;;;;;;;;;14.50;14.50;;;;;;;;4998551;28;45776;-67
2022/02/10 02:03:26;;;;;;;;;14.75;14.75;;;;;;;;4978764;28;45752;-68
2022/02/10 02:06:14;;;;;;;;;20.75;15.50;;;;;;;;4998420;28;45502;-67
2022/02/10 02:08:40;;;;;;;;;17.25;14.25;;;;;;;;5002190;28;45539;-68
2022/02/10 02:11:06;;;;;;;;;15.75;13.00;;;;;;;;4998318;28;45397;-68
2022/02/10 02:13:31;;;;;;;;;17.25;13.75;;;;;;;;5000517;28;45746;-68
2022/02/10 02:15:57;;;;;;;;;13.50;13.25;;;;;;;;5007449;28;47214;-67
2022/02/10 02:18:22;;;;;;;;;16.50;14.25;;;;;;;;4995279;28;45410;-68
2022/02/10 02:20:49;;;;;;;;;18.25;15.75;;;;;;;;5020160;28;45349;-68
2022/02/10 02:23:15;;;;;;;;;15.00;14.00;;;;;;;;5055579;28;46079;-68
2022/02/10 02:25:40;;;;;;;;;15.00;14.50;;;;;;;;5054042;28;46353;-68
2022/02/10 02:28:09;;;;;;;;;18.00;16.75;;;;;;;;5052520;28;45426;-67
2022/02/10 02:30:41;;;;;;;;;13.50;12.25;;;;;;;;5053036;28;45587;-68
2022/02/10 02:36:41;;;;;;;;;14.25;12.25;;;;;;;;5045322;28;45454;-68
2022/02/10 03:06:14;;;;;;;;;15.50;14.75;;;;;;;;5048559;28;45386;-68
2022/02/10 03:08:44;;;;;;;;;18.25;15.75;;;;;;;;5055440;28;46791;-68
2022/02/10 03:11:11;;;;;;;;;18.75;15.25;;;;;;;;5053188;28;45280;-67
2022/02/10 03:13:43;;;;;;;;;17.75;14.25;;;;;;;;5054484;28;45620;-68
2022/02/10 03:19:02;;;;;;;;;13.50;13.50;;;;;;;;5052353;28;45912;-67
2022/02/10 04:22:50;;;;;;;;;11.00;10.00;;;;;;;;4995823;28;46136;-67
2022/02/10 04:25:52;;;;;;;;;16.50;12.00;;;;;;;;4996487;28;45372;-68
2022/02/10 04:44:04;;;;;;;;;15.00;12.75;;;;;;;;5005858;28;45891;-68
2022/02/10 05:18:45;;;;;;;;;13.25;12.25;;;;;;;;4992675;28;45467;-67
2022/02/10 05:34:15;;;;;;;;;12.00;12.00;;;;;;;;5000999;28;45485;-67
2022/02/10 05:36:42;;;;;;;;;12.75;10.50;;;;;;;;4997386;28;48641;-67
2022/02/10 05:39:14;;;;;;;;;12.25;11.50;;;;;;;;5020629;28;45372;-67
2022/02/10 05:55:06;;;;;;;;;12.00;12.00;;;;;;;;5070907;28;45547;-68
2022/02/10 05:57:56;;;;;;;;;11.25;10.75;;;;;;;;5057740;28;46201;-69
2022/02/10 06:52:03;;;;;;;;;10.75;10.75;;;;;;;;4973186;28;45610;-70
2022/02/10 07:08:10;;;;;;;;;13.75;10.00;;;;;;;;5037916;28;47072;-72
2022/02/10 08:57:23;;;;;;;;;11.25;9.00;;;;;;;;5016466;28;45470;-69
2022/02/10 09:48:51;;;;;;;;;5.75;5.75;;;;;;;;5057117;28;45419;-69
2022/02/10 09:56:13;;;;;;;;;8.00;6.50;;;;;;;;5054528;28;45487;-68
2022/02/10 09:59:09;;;;;;;;;6.50;6.50;;;;;;;;5056219;28;45589;-69
2022/02/10 10:01:30;;;;;;;;;7.25;6.00;;;;;;;;5052052;28;45555;-69
2022/02/10 10:04:02;;;;;;;;;6.00;4.25;;;;;;;;5053150;28;46943;-68
2022/02/10 10:07:16;;;;;;;;;3.75;3.75;;;;;;;;5061697;28;45579;-68
2022/02/10 10:14:37;;;;;;;;;10.25;8.75;;;;;;;;5056512;28;45276;-69
2022/02/10 10:20:39;;;;;;;;;5.00;5.00;;;;;;;;5047253;28;45604;-68
2022/02/10 10:26:05;;;;;;;;;9.25;7.50;;;;;;;;5053842;28;45608;-69
2022/02/10 10:46:31;;;;;;;;;5.50;5.50;;;;;;;;5052665;28;45280;-69
2022/02/10 10:48:49;;;;;;;;;7.75;5.00;;;;;;;;5048407;28;46070;-68
2022/02/10 10:53:26;;;;;;;;;3.75;3.75;;;;;;;;5054160;28;45355;-69
2022/02/10 10:58:30;;;;;;;;;5.25;5.25;;;;;;;;5052586;28;47372;-70
2022/02/10 11:03:54;;;;;;;;;7.75;7.00;;;;;;;;5055222;28;45370;-69
2022/02/10 11:22:27;;;;;;;;;5.00;5.00;;;;;;;;5055217;28;45749;-68
2022/02/10 11:38:06;;;;;;;;;6.75;6.75;;;;;;;;5052350;28;45368;-69
2022/02/10 11:40:39;;;;;;;;;5.00;5.00;;;;;;;;5051038;28;45437;-69
2022/02/10 11:43:26;;;;;;;;;3.00;3.00;;;;;;;;5042982;28;46555;-69
2022/02/10 13:26:08;;;;;;;;;3.00;3.00;;;;;;;;5053756;28;45406;-68
2022/02/10 14:13:56;;;;;;;;;3.50;3.50;;;;;;;;5054956;28;45371;-68
2022/02/10 14:16:35;;;;;;;;;2.75;2.00;;;;;;;;5053026;28;45569;-68
2022/02/10 14:19:13;;;;;;;;;3.50;3.50;;;;;;;;5054490;28;45916;-69
2022/02/10 14:21:47;;;;;;;;;3.75;3.00;;;;;;;;5055219;28;45297;-69
2022/02/10 14:26:55;;;;;;;;;4.25;3.00;;;;;;;;5053103;28;45711;-69
2022/02/10 14:29:21;;;;;;;;;4.00;2.50;;;;;;;;5054300;28;45501;-69
2022/02/10 14:31:46;;;;;;;;;3.00;3.00;;;;;;;;5051995;28;45462;-69
2022/02/10 14:34:16;;;;;;;;;3.25;3.25;;;;;;;;5053094;28;45478;-68
2022/02/10 14:36:45;;;;;;;;;2.00;2.00;;;;;;;;5054196;28;45527;-69
2022/02/10 14:39:28;;;;;;;;;3.00;3.00;;;;;;;;5053604;28;45516;-69
2022/02/10 15:18:13;;;;;;;;;2.00;2.00;;;;;;;;5001524;28;45275;-68
2022/02/10 15:48:43;;;;;;;;;5.00;3.00;;;;;;;;5051755;28;45385;-68
2022/02/10 15:56:41;;;;;;;;;3.00;3.00;;;;;;;;4996548;28;45388;-69
2022/02/10 16:18:03;;;;;;;;;1.50;1.50;;;;;;;;4993909;28;45492;-68
2022/02/10 16:20:30;;;;;;;;;2.00;2.00;;;;;;;;4993051;28;45409;-68
2022/02/10 16:23:01;;;;;;;;;2.50;2.50;;;;;;;;4995865;28;45495;-69
2022/02/10 16:25:27;;;;;;;;;1.00;1.00;;;;;;;;4995514;28;47410;-68
2022/02/10 16:28:01;;;;;;;;;2.00;2.00;;;;;;;;4998514;28;45374;-68
2022/02/10 16:30:26;;;;;;;;;2.25;2.00;;;;;;;;5056406;28;45446;-68
2022/02/10 16:32:51;;;;;;;;;1.50;1.25;;;;;;;;5057618;28;45546;-69
2022/02/10 16:35:17;;;;;;;;;1.25;1.25;;;;;;;;5060257;28;45572;-69
2022/02/10 16:37:44;;;;;;;;;2.00;2.00;;;;;;;;5057101;28;45356;-69
2022/02/10 16:40:10;;;;;;;;;2.00;2.00;;;;;;;;5055042;28;45409;-68
2022/02/10 16:42:35;;;;;;;;;2.00;2.00;;;;;;;;5054819;28;45521;-68
2022/02/10 16:45:00;;;;;;;;;1.75;1.25;;;;;;;;5059297;28;45625;-69
2022/02/10 16:47:26;;;;;;;;;5.25;1.50;;;;;;;;5057999;28;45426;-69
2022/02/10 16:49:53;;;;;;;;;1.25;1.25;;;;;;;;5057818;28;45592;-68
2022/02/10 16:52:23;;;;;;;;;1.75;1.75;;;;;;;;5053335;28;45423;-69
2022/02/10 16:54:50;;;;;;;;;1.00;1.00;;;;;;;;5055523;28;45395;-68
2022/02/10 16:57:35;;;;;;;;;3.75;2.00;;;;;;;;5068182;28;45373;-68
2022/02/10 17:05:15;;;;;;;;;2.25;1.00;;;;;;;;5054310;28;45560;-69
2022/02/10 17:16:54;;;;;;;;;3.00;1.50;;;;;;;;5056627;28;45280;-68
2022/02/10 17:19:01;;;;;;;;;2.00;2.00;;;;;;;;5055961;28;45526;-68
2022/02/10 17:27:03;;;;;;;;;1.25;1.25;;;;;;;;5060253;28;45827;-68
2022/02/10 17:32:47;;;;;;;;;3.00;2.00;;;;;;;;5041323;28;45387;-69
2022/02/10 17:35:44;;;;;;;;;2.75;2.75;;;;;;;;5050805;28;45706;-69
2022/02/10 17:46:22;;;;;;;;;1.75;1.75;;;;;;;;5052842;28;45537;-69
2022/02/10 17:54:08;;;;;;;;;1.00;1.00;;;;;;;;5052047;28;45581;-68
2022/02/10 17:56:34;;;;;;;;;2.00;1.00;;;;;;;;5050995;28;45316;-68
2022/02/10 17:59:00;;;;;;;;;1.25;1.25;;;;;;;;5052263;28;46446;-69
2022/02/10 18:01:25;;;;;;;;;1.25;1.25;;;;;;;;5052053;28;45400;-68
2022/02/10 18:03:50;;;;;;;;;2.25;2.00;;;;;;;;5052122;28;45749;-69
2022/02/10 18:06:39;;;;;;;;;2.00;2.00;;;;;;;;5051357;28;45362;-68
2022/02/10 18:17:25;;;;;;;;;4.00;3.00;;;;;;;;5031664;28;45273;-68
2022/02/10 18:20:06;;;;;;;;;1.25;1.25;;;;;;;;5032017;28;46949;-68
2022/02/10 18:23:19;;;;;;;;;2.75;1.50;;;;;;;;5037672;28;45477;-72
2022/02/10 18:25:49;;;;;;;;;1.00;1.00;;;;;;;;5026927;28;45295;-71
2022/02/10 18:34:20;;;;;;;;;1.50;1.50;;;;;;;;5030729;28;45717;-73
2022/02/10 19:06:44;;;;;;;;;0.50;0.50;;;;;;;;4972896;28;45594;-71
2022/02/10 19:09:22;;;;;;;;;0.25;0.25;;;;;;;;4973091;28;45429;-72
2022/02/10 19:11:56;;;;;;;;;1.75;1.00;;;;;;;;4972669;28;45549;-71
2022/02/10 19:14:21;;;;;;;;;4.75;2.00;;;;;;;;4972292;28;46259;-73
2022/02/10 19:16:46;;;;;;;;;3.00;1.00;;;;;;;;4972886;28;45432;-72
2022/02/10 19:19:13;;;;;;;;;1.50;1.00;;;;;;;;4984578;28;45799;-72
2022/02/10 19:21:39;;;;;;;;;1.00;1.00;;;;;;;;4993223;28;45402;-73
2022/02/10 19:24:05;;;;;;;;;2.00;2.00;;;;;;;;4991983;28;45404;-73
2022/02/10 19:26:30;;;;;;;;;2.75;1.50;;;;;;;;4993107;28;45617;-71
2022/02/10 19:28:55;;;;;;;;;0.50;0.50;;;;;;;;4992455;28;45517;-72
2022/02/10 19:31:22;;;;;;;;;1.00;1.00;;;;;;;;5027722;28;45412;-72
2022/02/10 19:33:50;;;;;;;;;1.25;1.25;;;;;;;;5053667;28;46285;-72
2022/02/10 19:36:15;;;;;;;;;2.00;2.00;;;;;;;;5037559;28;45740;-72
2022/02/10 19:38:41;;;;;;;;;1.00;1.00;;;;;;;;5055553;28;45408;-71
2022/02/10 19:41:06;;;;;;;;;2.50;1.00;;;;;;;;5051861;28;45377;-71
2022/02/10 19:43:31;;;;;;;;;1.00;1.00;;;;;;;;5053289;28;45610;-71
2022/02/10 19:45:56;;;;;;;;;0.25;0.25;;;;;;;;5051581;28;45339;-72
2022/02/10 19:48:22;;;;;;;;;1.00;1.00;;;;;;;;5039374;28;45592;-70
2022/02/10 19:50:47;;;;;;;;;0.00;0.00;;;;;;;;5054967;28;45470;-70
2022/02/10 19:53:14;;;;;;;;;1.00;1.00;;;;;;;;5050894;28;46466;-70
2022/02/10 19:55:43;;;;;;;;;1.00;1.00;;;;;;;;5051320;28;45572;-71
2022/02/10 19:58:11;;;;;;;;;0.00;0.00;;;;;;;;5051165;28;45497;-71
2022/02/10 20:00:41;;;;;;;;;0.75;0.75;;;;;;;;5051026;28;45520;-70
2022/02/10 20:03:18;;;;;;;;;0.50;0.50;;;;;;;;5052499;28;46648;-70
2022/02/10 20:05:45;;;;;;;;;1.00;1.00;;;;;;;;5055065;28;45477;-71
2022/02/10 20:08:12;;;;;;;;;1.25;1.00;;;;;;;;5045130;28;45721;-70
2022/02/10 20:10:37;;;;;;;;;1.00;1.00;;;;;;;;5048981;28;45537;-70
2022/02/10 20:13:02;;;;;;;;;1.00;1.00;;;;;;;;5052979;28;46450;-71
2022/02/10 20:15:33;;;;;;;;;0.00;0.00;;;;;;;;5048409;28;45825;-71
2022/02/10 20:18:01;;;;;;;;;2.00;1.00;;;;;;;;5034056;28;45498;-69
2022/02/10 20:20:26;;;;;;;;;1.00;1.00;;;;;;;;5036993;28;45375;-71
2022/02/10 20:22:52;;;;;;;;;2.50;1.00;;;;;;;;5044550;28;47586;-71
2022/02/10 20:25:18;;;;;;;;;3.00;1.50;;;;;;;;5047570;28;45644;-72
2022/02/10 20:27:43;;;;;;;;;0.00;0.00;;;;;;;;5049233;28;45423;-73
2022/02/10 20:30:08;;;;;;;;;1.00;1.00;;;;;;;;5048762;28;45546;-70
2022/02/10 20:32:33;;;;;;;;;2.00;1.00;;;;;;;;5053099;28;46099;-71
2022/02/10 20:34:59;;;;;;;;;1.00;1.00;;;;;;;;5050652;28;45812;-71
2022/02/10 20:37:25;;;;;;;;;3.00;1.25;;;;;;;;5052268;28;45482;-72
2022/02/10 20:39:50;;;;;;;;;0.75;0.75;;;;;;;;5052829;28;45511;-71
2022/02/10 20:42:18;;;;;;;;;1.00;1.00;;;;;;;;5050718;28;45831;-71
2022/02/10 20:44:46;;;;;;;;;2.50;2.25;;;;;;;;5050358;28;45546;-71
2022/02/10 20:47:14;;;;;;;;;1.00;1.00;;;;;;;;5050816;28;45415;-71
2022/02/10 20:49:40;;;;;;;;;2.75;1.00;;;;;;;;5050494;28;45437;-71
2022/02/10 20:52:05;;;;;;;;;1.00;1.00;;;;;;;;5044946;28;46457;-71
2022/02/10 20:54:30;;;;;;;;;1.00;1.00;;;;;;;;5053045;28;45542;-71
2022/02/10 20:56:56;;;;;;;;;1.75;1.00;;;;;;;;5050848;27;45710;-72
2022/02/10 20:59:34;;;;;;;;;3.00;2.00;;;;;;;;5050852;28;45392;-70
2022/02/10 21:02:11;;;;;;;;;2.00;2.00;;;;;;;;5045533;28;45364;-71
2022/02/10 21:04:42;;;;;;;;;2.00;2.00;;;;;;;;5052085;28;45336;-71
2022/02/10 21:07:16;;;;;;;;;1.00;1.00;;;;;;;;5050402;28;45479;-70
2022/02/10 21:12:10;;;;;;;;;1.00;1.00;;;;;;;;5057538;28;46122;-71
2022/02/10 21:14:35;;;;;;;;;0.50;0.50;;;;;;;;5055402;28;45434;-73
2022/02/10 21:17:07;;;;;;;;;2.00;2.00;;;;;;;;5054419;28;45477;-72
2022/02/10 21:19:33;;;;;;;;;1.00;1.00;;;;;;;;5055533;28;45533;-72
2022/02/10 21:21:59;;;;;;;;;0.75;0.75;;;;;;;;5040934;28;46475;-71
2022/02/10 21:24:29;;;;;;;;;1.75;1.00;;;;;;;;5040003;28;45371;-72
2022/02/10 21:27:27;;;;;;;;;1.50;1.50;;;;;;;;5044227;28;45384;-70
2022/02/10 21:29:59;;;;;;;;;1.00;1.00;;;;;;;;5052861;28;45652;-70
2022/02/10 21:32:26;;;;;;;;;1.25;1.00;;;;;;;;5050843;28;47539;-71
2022/02/10 21:37:45;;;;;;;;;2.25;1.00;;;;;;;;5014911;28;45494;-70
2022/02/10 21:40:29;;;;;;;;;1.00;1.00;;;;;;;;5015731;28;45452;-70
2022/02/10 21:54:30;;;;;;;;;1.00;1.00;;;;;;;;5013478;28;45505;-71
2022/02/10 22:08:25;;;;;;;;;3.50;1.00;;;;;;;;5014063;28;45472;-72
2022/02/10 22:23:17;;;;;;;;;1.75;1.75;;;;;;;;5053504;28;45371;-70
2022/02/10 22:25:43;;;;;;;;;1.50;1.50;;;;;;;;5050827;28;47401;-71
2022/02/10 22:28:28;;;;;;;;;1.25;1.25;;;;;;;;5053795;28;45374;-71
2022/02/10 22:31:23;;;;;;;;;1.00;1.00;;;;;;;;5057591;28;45504;-71
2022/02/10 22:36:09;;;;;;;;;1.00;1.00;;;;;;;;5054430;28;45446;-71
2022/02/10 22:38:36;;;;;;;;;9.25;7.00;;;;;;;;5054726;28;45280;-69
2022/02/10 22:41:08;;;;;;;;;4.75;4.25;;;;;;;;5052426;28;45438;-68
2022/02/10 22:43:34;;;;;;;;;2.25;2.25;;;;;;;;5052255;28;45564;-66
2022/02/10 22:45:59;;;;;;;;;3.25;3.25;;;;;;;;5052703;28;45910;-67
2022/02/10 22:48:25;;;;;;;;;1.50;1.50;;;;;;;;5052907;28;45383;-67
2022/02/10 22:50:50;;;;;;;;;2.00;2.00;;;;;;;;5055846;28;45253;-66
2022/02/10 22:53:15;;;;;;;;;2.00;2.00;;;;;;;;5054468;28;45330;-66
2022/02/10 22:55:41;;;;;;;;;2.75;1.75;;;;;;;;5053875;28;47348;-67
2022/02/10 22:58:06;;;;;;;;;3.25;2.75;;;;;;;;5053897;28;45268;-66
2022/02/10 23:00:32;;;;;;;;;1.75;1.75;;;;;;;;5052616;28;45458;-66
2022/02/10 23:02:58;;;;;;;;;4.00;2.00;;;;;;;;5054638;28;45300;-66
2022/02/10 23:05:23;;;;;;;;;2.75;2.75;;;;;;;;5055081;28;46553;-66
2022/02/10 23:07:55;;;;;;;;;2.00;2.00;;;;;;;;5051956;28;45448;-66
2022/02/10 23:13:04;;;;;;;;;2.50;2.50;;;;;;;;5052365;28;45451;-66
2022/02/10 23:15:35;;;;;;;;;2.00;2.00;;;;;;;;5055550;28;46496;-66
2022/02/10 23:18:00;;;;;;;;;2.75;2.50;;;;;;;;5056201;28;45658;-66
2022/02/10 23:20:26;;;;;;;;;3.50;2.00;;;;;;;;5058170;28;45355;-66
2022/02/10 23:22:53;;;;;;;;;2.00;2.00;;;;;;;;5056257;28;45470;-66
2022/02/10 23:25:19;;;;;;;;;2.50;2.50;;;;;;;;5056247;28;45346;-66
2022/02/10 23:27:44;;;;;;;;;2.75;2.75;;;;;;;;5056148;28;45787;-66
2022/02/10 23:30:09;;;;;;;;;2.75;2.75;;;;;;;;5052965;28;45224;-67
2022/02/10 23:32:34;;;;;;;;;2.75;2.75;;;;;;;;5049931;28;45420;-66
2022/02/10 23:35:03;;;;;;;;;3.25;3.25;;;;;;;;5052280;28;45611;-66
2022/02/10 23:37:30;;;;;;;;;2.50;2.50;;;;;;;;5051984;28;45429;-67
2022/02/10 23:39:56;;;;;;;;;3.00;3.00;;;;;;;;5051911;28;45322;-66
2022/02/10 23:42:29;;;;;;;;;3.00;3.00;;;;;;;;5055909;28;45445;-66
2022/02/10 23:44:59;;;;;;;;;2.00;2.00;;;;;;;;5054314;28;47650;-66
2022/02/10 23:47:24;;;;;;;;;4.25;2.75;;;;;;;;5052796;28;45486;-66
2022/02/10 23:49:51;;;;;;;;;3.00;2.00;;;;;;;;5053301;28;45442;-66
2022/02/10 23:52:17;;;;;;;;;3.00;3.00;;;;;;;;5052875;28;45502;-66
2022/02/10 23:54:45;;;;;;;;;5.00;3.00;;;;;;;;5054008;28;46904;-66
2022/02/10 23:57:31;;;;;;;;;3.50;3.50;;;;;;;;5053697;28;45362;-67
